Gas Capricorn — A8AK7 — position and weather

sailwx.info

Track history (hours):
 
Tides and Currents Weather Stations Pressure Air Temp Water Temp Dewpoint Dewpoint Depression Visibility Wind Speed Wind Dir Waves Ship Positions

Gas Capricorn

Last reported at 2018-Jun-18 19:06 UTC. Time now 2018-Jun-19 18:27 UTC.
Position N 30°59' E 122°31'.

Length 230 m; beam 36.6 m.

Type: Tanker. MMSI: 636011617.

Date/timePositionNaut miles runAvg speedWind from/ knotsBaromVisibWave heightAir tempDewpointWater temp
2018-Jun-18 19:06N 30°59' E 122°31'110.5
2018-Jun-18 18:59N 30°59' E 122°29'511.1
2018-Jun-18 18:30N 31°01' E 122°23'511.0
2018-Jun-18 18:00N 31°02' E 122°17'4 8.3
2018-Jun-18 17:30N 31°02' E 122°12'4 7.1
2018-Jun-18 17:00N 31°03' E 122°08'4 8.9
2018-Jun-18 16:30N 31°04' E 122°03'5 9.4
2018-Jun-18 16:00N 31°06' E 121°58'610.9
2018-Jun-18 15:30N 31°09' E 121°53'613.1
2018-Jun-18 15:00N 31°14' E 121°48'7711.4
2018-Jun-18 08:14N 32°00' E 120°35'313.8
2018-Jun-18 08:00N 32°01' E 120°32'713.2
2018-Jun-18 07:30N 32°01' E 120°24'1 2.1
2018-Jun-18 06:58N 32°02' E 120°24'1 0.0
2018-Jun-17 09:50N 32°03' E 120°25'0 0.3
2018-Jun-17 09:29N 32°03' E 120°25'0 0.0
2018-Jun-15 20:01N 32°02' E 120°24'0 2.9
2018-Jun-15 20:00N 32°02' E 120°24'  
Track history (hours):
 
Tides and Currents Weather Stations Pressure Air Temp Water Temp Dewpoint Dewpoint Depression Visibility Wind Speed Wind Dir Waves Ship Positions

Gas Capricorn

Last reported at 2018-Jun-18 19:06 UTC. Time now 2018-Jun-19 18:27 UTC.
Position N 30°59' E 122°31'.

Length 230 m; beam 36.6 m.

Type: Tanker. MMSI: 636011617.

Date/timePositionNaut miles runAvg speedWind from/ knotsBaromVisibWave heightAir tempDewpointWater temp
2018-Jun-18 19:06N 30°59' E 122°31'110.5
2018-Jun-18 18:59N 30°59' E 122°29'511.1
2018-Jun-18 18:30N 31°01' E 122°23'511.0
2018-Jun-18 18:00N 31°02' E 122°17'4 8.3
2018-Jun-18 17:30N 31°02' E 122°12'4 7.1
2018-Jun-18 17:00N 31°03' E 122°08'4 8.9
2018-Jun-18 16:30N 31°04' E 122°03'5 9.4
2018-Jun-18 16:00N 31°06' E 121°58'610.9
2018-Jun-18 15:30N 31°09' E 121°53'613.1
2018-Jun-18 15:00N 31°14' E 121°48'7711.4
2018-Jun-18 08:14N 32°00' E 120°35'313.8
2018-Jun-18 08:00N 32°01' E 120°32'713.2
2018-Jun-18 07:30N 32°01' E 120°24'1 2.1
2018-Jun-18 06:58N 32°02' E 120°24'1 0.0
2018-Jun-17 09:50N 32°03' E 120°25'0 0.3
2018-Jun-17 09:29N 32°03' E 120°25'0 0.0
2018-Jun-15 20:01N 32°02' E 120°24'0 2.9
2018-Jun-15 20:00N 32°02' E 120°24'  

Dump ship's entire track history